• Join FlightAware (Why Join?)
  • Login
  • US Flag 
06:54PM EDT


 

Airport Tracker/Info


-or-


 

Live Flight TrackerFlight Track Log ✈ TAM3469 ✈ 24-Jun-2013 ✈ SBGO / GYN - SBSP / CGH

Flight Track Log - Related Links

Times and Time Zones

All times are in EDT time to prevent confusion due to time zone crossing. See the TAM3469 flight status page for this flight to view local times or setup timezone preferences in your user account.

Time Position Orientation Groundspeed Altitude Reporting Facility
EDT Latitude Longitude Course Direction KTS MPH feet Rate Location/Type
07:34PM -19.8739 -48.0618 161° South  Level Estimated
07:35PM -19.9615 -48.0299 161° South  Level Estimated
07:36PM -20.0490 -47.9979 161° South  Level Estimated
07:37PM -20.1365 -47.9659 161° South  Level Estimated
07:38PM -20.2240 -47.9338 161° South  Level Estimated
07:39PM -20.3115 -47.9017 161° South  Level Estimated
07:40PM -20.3990 -47.8696 161° South  Level Estimated
07:41PM -20.4865 -47.8374 161° South  Level Estimated
07:42PM -20.5739 -47.8052 161° South  Level Estimated
07:43PM -20.6614 -47.7730 161° South  Level Estimated
07:44PM -20.7489 -47.7407 161° South  Level Estimated
07:45PM -20.8363 -47.7084 161° South  Level Estimated
07:46PM -20.9238 -47.6760 161° South  Level Estimated
07:47PM -21.0112 -47.6437 161° South  Level Estimated
07:48PM -21.0987 -47.6113 161° South  Level Estimated
07:49PM -21.1861 -47.5788 161° South  Level Estimated
07:50PM -21.2736 -47.5463 161° South  Level Estimated
07:51PM -21.3610 -47.5137 161° South  Level Estimated
07:52PM -21.4484 -47.4812 161° South  Level Estimated
07:53PM -21.5358 -47.4486 161° South  Level Estimated
07:54PM -21.6232 -47.4159 161° South  Level Estimated
07:55PM -21.7106 -47.3832 161° South  Level Estimated
07:56PM -21.7980 -47.3505 161° South  Level Estimated
07:57PM -21.8854 -47.3177 161° South  Level Estimated
07:58PM -21.9728 -47.2849 161° South  Level Estimated
07:59PM -22.0601 -47.2520 161° South  Level Estimated
08:00PM -22.1475 -47.2191 161° South  Level Estimated
08:01PM -22.2349 -47.1862 161° South  Level Estimated
08:02PM -22.3222 -47.1532 161° South  Level Estimated
08:03PM -22.4096 -47.1202 161° South  Level Estimated
08:04PM -22.4969 -47.0871 161° South  Level Estimated
08:05PM -22.5842 -47.0540 161° South  Level Estimated
08:06PM -22.6716 -47.0209 161° South  Level Estimated
08:07PM -22.7589 -46.9877 161° South  Level Estimated
08:08PM -22.8462 -46.9545 161° South  Level Estimated
08:09PM -22.9335 -46.9212 161° South  Level Estimated
08:10PM -23.0208 -46.8879 161° South  Level Estimated
08:11PM -23.1081 -46.8545 161° South  Level Estimated
08:12PM -23.1954 -46.8211 161° South  Level Estimated
08:13PM -23.2826 -46.7877 161° South  Level Estimated
08:14PM -23.3699 -46.7542 161° South  Level Estimated
08:15PM -23.4572 -46.7207 161° South  Level Estimated
08:16PM -23.5444 -46.6871 161° South  Level Estimated
08:17PM -23.6267 -46.6554 161° South  Level Estimated
08:18PM -23.6267 -46.6554 114° Southeast  Level Estimated
08:19PM -23.6267 -46.6554 114° Southeast  Level Estimated
08:20PM -23.6267 -46.6554 114° Southeast  Level Estimated
08:21PM -23.6267 -46.6554 114° Southeast  Level Estimated
08:22PM -23.6267 -46.6554 114° Southeast  Level Estimated
08:23PM -23.6267 -46.6554 114° Southeast  Level Estimated
08:24PM -23.6267 -46.6554 114° Southeast  Level Estimated
08:25PM -23.6267 -46.6554 114° Southeast  Level Estimated
08:26PM -23.6267 -46.6554 114° Southeast  Level Estimated
08:27PM -23.6267 -46.6554 114° Southeast  Level Estimated
08:28PM -23.6267 -46.6554 114° Southeast  Level Estimated
08:29PM -23.6267 -46.6554 114° Southeast  Level Estimated
08:30PM -23.6267 -46.6554 114° Southeast  Level Estimated